createdAt,value
2018-07-27T00:00:27.707Z,1014.29
2018-07-27T00:01:27.761Z,1014.28
2018-07-27T00:02:27.817Z,1014.26
2018-07-27T00:03:27.892Z,1014.29
2018-07-27T00:04:27.823Z,1014.28
2018-07-27T00:05:27.893Z,1014.28
2018-07-27T00:06:27.909Z,1014.30
2018-07-27T00:07:27.944Z,1014.25
2018-07-27T00:08:27.963Z,1014.26
2018-07-27T00:09:27.985Z,1014.25
2018-07-27T00:10:28.041Z,1014.28
2018-07-27T00:11:28.045Z,1014.26
2018-07-27T00:12:28.071Z,1014.28
2018-07-27T00:13:28.099Z,1014.26
2018-07-27T00:14:28.138Z,1014.27
2018-07-27T00:15:28.172Z,1014.30
2018-07-27T00:16:28.196Z,1014.31
2018-07-27T00:17:28.221Z,1014.31
2018-07-27T00:18:28.265Z,1014.31
2018-07-27T00:19:28.301Z,1014.31
2018-07-27T00:20:28.315Z,1014.35
2018-07-27T00:21:28.356Z,1014.35
2018-07-27T00:22:29.160Z,1014.33
2018-07-27T00:23:28.419Z,1014.34
2018-07-27T00:24:28.482Z,1014.34
2018-07-27T00:25:28.482Z,1014.32
2018-07-27T00:26:28.502Z,1014.32
2018-07-27T00:27:28.555Z,1014.31
2018-07-27T00:28:28.566Z,1014.32
2018-07-27T00:29:28.592Z,1014.34
2018-07-27T00:30:28.624Z,1014.33
2018-07-27T00:31:28.670Z,1014.36
2018-07-27T00:32:28.684Z,1014.34
2018-07-27T00:33:28.717Z,1014.34
2018-07-27T00:34:28.746Z,1014.32
2018-07-27T00:35:28.777Z,1014.34
2018-07-27T00:36:28.821Z,1014.35
2018-07-27T00:37:28.843Z,1014.35
2018-07-27T00:38:28.872Z,1014.32
2018-07-27T00:39:28.903Z,1014.31
2018-07-27T00:40:28.936Z,1014.30
2018-07-27T00:41:28.958Z,1014.28
2018-07-27T00:42:28.999Z,1014.30
2018-07-27T00:43:29.029Z,1014.26
2018-07-27T00:44:29.071Z,1014.30
2018-07-27T00:45:29.090Z,1014.30
2018-07-27T00:46:29.119Z,1014.23
2018-07-27T00:47:29.147Z,1014.20
2018-07-27T00:48:29.177Z,1014.21
2018-07-27T00:49:29.217Z,1014.25
2018-07-27T00:50:29.242Z,1014.25
2018-07-27T00:51:29.274Z,1014.21
2018-07-27T00:52:29.300Z,1014.22
2018-07-27T00:53:29.336Z,1014.25
2018-07-27T00:54:29.367Z,1014.26
2018-07-27T00:55:29.392Z,1014.21
2018-07-27T00:56:29.423Z,1014.22
2018-07-27T00:57:29.464Z,1014.19
2018-07-27T00:58:29.485Z,1014.18
2018-07-27T00:59:29.514Z,1014.21
2018-07-27T01:00:29.553Z,1014.19
2018-07-27T01:01:29.603Z,1014.20
2018-07-27T01:02:29.609Z,1014.21
2018-07-27T01:03:29.644Z,1014.18
2018-07-27T01:04:29.672Z,1014.16
2018-07-27T01:05:29.699Z,1014.17
2018-07-27T01:06:29.742Z,1014.21
2018-07-27T01:07:29.761Z,1014.20
2018-07-27T01:08:29.791Z,1014.16
2018-07-27T01:09:29.827Z,1014.17
2018-07-27T01:10:29.855Z,1014.22
2018-07-27T01:11:29.883Z,1014.17
2018-07-27T01:12:29.927Z,1014.15
2018-07-27T01:13:29.949Z,1014.13
2018-07-27T01:14:29.979Z,1014.17
2018-07-27T01:15:30.012Z,1014.13
2018-07-27T01:16:30.052Z,1014.10
2018-07-27T01:17:30.068Z,1014.12
2018-07-27T01:18:30.104Z,1014.15
2018-07-27T01:19:30.132Z,1014.14
2018-07-27T01:20:30.163Z,1014.11
2018-07-27T01:21:30.191Z,1014.11
2018-07-27T01:22:31.183Z,1014.10
2018-07-27T01:23:30.252Z,1014.11
2018-07-27T01:24:30.279Z,1014.10
2018-07-27T01:25:30.317Z,1014.10
2018-07-27T01:26:30.344Z,1014.09
2018-07-27T01:27:30.375Z,1014.11
2018-07-27T01:28:30.405Z,1014.11
2018-07-27T01:29:30.452Z,1014.13
2018-07-27T01:30:30.464Z,1014.11
2018-07-27T01:31:31.194Z,1014.09
2018-07-27T01:32:30.531Z,1014.10
2018-07-27T01:33:30.584Z,1014.04
2018-07-27T01:34:30.599Z,1014.06
2018-07-27T01:35:30.616Z,1014.08
2018-07-27T01:36:30.649Z,1014.08
2018-07-27T01:37:30.679Z,1014.05
2018-07-27T01:38:30.713Z,1014.03
2018-07-27T01:39:30.746Z,1014.04
2018-07-27T01:40:31.688Z,1014.03
2018-07-27T01:41:30.809Z,1014.04
2018-07-27T01:42:30.906Z,1014.07
2018-07-27T01:43:30.865Z,1014.03
2018-07-27T01:44:30.906Z,1014.03
2018-07-27T01:45:30.931Z,1014.02
2018-07-27T01:46:30.952Z,1014.00
2018-07-27T01:47:30.988Z,1014.00
2018-07-27T01:48:31.018Z,1014.01
2018-07-27T01:49:31.047Z,1013.97
2018-07-27T01:50:31.082Z,1013.96
2018-07-27T01:51:31.122Z,1013.94
2018-07-27T01:52:31.151Z,1013.97
2018-07-27T01:53:31.175Z,1014.01
2018-07-27T01:54:31.205Z,1013.97
2018-07-27T01:55:31.251Z,1013.97
2018-07-27T01:56:31.260Z,1013.95
2018-07-27T01:57:31.289Z,1013.98
2018-07-27T01:58:31.322Z,1013.95
2018-07-27T01:59:31.355Z,1013.96
2018-07-27T02:00:31.387Z,1013.93
2018-07-27T02:01:31.417Z,1013.94
2018-07-27T02:02:31.456Z,1013.95
2018-07-27T02:03:31.480Z,1013.95
2018-07-27T02:04:31.504Z,1013.94
2018-07-27T02:05:31.536Z,1013.94
2018-07-27T02:06:31.569Z,1013.93
2018-07-27T02:07:31.601Z,1013.93
2018-07-27T02:08:31.630Z,1013.95
2018-07-27T02:09:31.657Z,1013.94
2018-07-27T02:10:31.689Z,1013.93
2018-07-27T02:11:31.723Z,1013.97
2018-07-27T02:12:31.750Z,1013.97
2018-07-27T02:13:31.785Z,1013.94
2018-07-27T02:14:31.826Z,1013.95
2018-07-27T02:15:31.839Z,1013.98
2018-07-27T02:16:31.872Z,1014.00
2018-07-27T02:17:31.922Z,1013.97
2018-07-27T02:18:31.942Z,1013.96
2018-07-27T02:19:31.964Z,1013.92
2018-07-27T02:20:31.994Z,1013.95
2018-07-27T02:21:32.029Z,1013.95
2018-07-27T02:22:32.052Z,1013.94
2018-07-27T02:23:32.098Z,1013.90
2018-07-27T02:24:32.120Z,1013.88
2018-07-27T02:25:32.147Z,1013.90
2018-07-27T02:26:32.174Z,1013.86
2018-07-27T02:27:32.212Z,1013.84
2018-07-27T02:28:32.239Z,1013.83
2018-07-27T02:29:32.274Z,1013.84
2018-07-27T02:30:32.296Z,1013.80
2018-07-27T02:31:32.334Z,1013.81
2018-07-27T02:32:32.361Z,1013.80
2018-07-27T02:33:32.399Z,1013.81
2018-07-27T02:34:32.422Z,1013.80
2018-07-27T02:35:32.453Z,1013.81
2018-07-27T02:36:32.485Z,1013.78
2018-07-27T02:37:32.508Z,1013.81
2018-07-27T02:38:32.542Z,1013.79
2018-07-27T02:39:32.571Z,1013.77
2018-07-27T02:40:33.209Z,1013.78
2018-07-27T02:41:32.635Z,1013.75
2018-07-27T02:42:32.680Z,1013.75
2018-07-27T02:43:32.696Z,1013.72
2018-07-27T02:44:32.723Z,1013.74
2018-07-27T02:45:32.754Z,1013.70
2018-07-27T02:46:32.784Z,1013.69
2018-07-27T02:47:32.821Z,1013.66
2018-07-27T02:48:32.855Z,1013.66
2018-07-27T02:49:32.879Z,1013.66
2018-07-27T02:50:32.909Z,1013.69
2018-07-27T02:51:32.941Z,1013.71
2018-07-27T02:52:32.970Z,1013.69
2018-07-27T02:53:32.997Z,1013.69
2018-07-27T02:54:33.032Z,1013.69
2018-07-27T02:55:33.059Z,1013.74
2018-07-27T02:56:33.087Z,1013.73
2018-07-27T02:57:33.127Z,1013.68
2018-07-27T02:58:33.157Z,1013.75
2018-07-27T02:59:33.184Z,1013.74
2018-07-27T03:00:33.216Z,1013.74
2018-07-27T03:01:33.240Z,1013.76
2018-07-27T03:02:33.276Z,1013.80
2018-07-27T03:03:33.301Z,1013.76
2018-07-27T03:04:33.335Z,1013.74
2018-07-27T03:05:33.373Z,1013.79
2018-07-27T03:06:33.393Z,1013.80
2018-07-27T03:07:33.428Z,1013.79
2018-07-27T03:08:33.459Z,1013.81
2018-07-27T03:09:33.515Z,1013.81
2018-07-27T03:10:33.514Z,1013.82
2018-07-27T03:11:33.544Z,1013.86
2018-07-27T03:12:33.571Z,1013.85
2018-07-27T03:13:33.609Z,1013.84
2018-07-27T03:14:33.635Z,1013.86
2018-07-27T03:15:33.676Z,1013.84
2018-07-27T03:16:33.696Z,1013.90
2018-07-27T03:17:33.728Z,1013.84
2018-07-27T03:18:33.767Z,1013.87
2018-07-27T03:19:33.794Z,1013.88
2018-07-27T03:20:33.829Z,1013.86
2018-07-27T03:21:33.850Z,1013.86
2018-07-27T03:22:33.880Z,1013.88
2018-07-27T03:23:33.913Z,1013.88
2018-07-27T03:24:33.943Z,1013.90
2018-07-27T03:25:33.971Z,1013.93
2018-07-27T03:26:34.000Z,1013.91
2018-07-27T03:27:34.040Z,1013.91
2018-07-27T03:28:34.060Z,1013.91
2018-07-27T03:29:34.103Z,1013.91
2018-07-27T03:30:34.124Z,1013.88
2018-07-27T03:31:34.155Z,1013.88
2018-07-27T03:32:34.240Z,1013.87
2018-07-27T03:33:34.229Z,1013.87
2018-07-27T03:34:34.256Z,1013.89
2018-07-27T03:35:34.279Z,1013.88
2018-07-27T03:36:34.303Z,1013.87
2018-07-27T03:37:34.332Z,1013.86
2018-07-27T03:38:34.371Z,1013.87
2018-07-27T03:39:34.393Z,1013.86
2018-07-27T03:40:34.434Z,1013.88
2018-07-27T03:41:34.464Z,1013.89
2018-07-27T03:42:34.492Z,1013.90
2018-07-27T03:43:34.521Z,1013.89
2018-07-27T03:44:34.549Z,1013.91
2018-07-27T03:45:34.573Z,1013.89
2018-07-27T03:46:34.604Z,1013.87
2018-07-27T03:47:34.636Z,1013.88
2018-07-27T03:48:34.669Z,1013.92
2018-07-27T03:49:34.711Z,1013.92
2018-07-27T03:50:34.732Z,1013.92
2018-07-27T03:51:34.796Z,1013.95
2018-07-27T03:52:34.785Z,1013.96
2018-07-27T03:53:34.823Z,1013.98
2018-07-27T03:54:34.853Z,1013.97
2018-07-27T03:55:34.885Z,1013.95
2018-07-27T03:56:34.912Z,1013.97
2018-07-27T03:57:34.942Z,1013.97
2018-07-27T03:58:34.970Z,1013.97
2018-07-27T03:59:35.001Z,1013.95
2018-07-27T04:00:35.110Z,1013.95
2018-07-27T04:01:35.062Z,1013.93
2018-07-27T04:02:35.093Z,1013.96
2018-07-27T04:03:35.133Z,1013.96
2018-07-27T04:04:35.155Z,1013.99
2018-07-27T04:05:35.187Z,1013.95
2018-07-27T04:06:35.221Z,1013.98
2018-07-27T04:07:35.245Z,1013.96
2018-07-27T04:08:35.282Z,1013.95
2018-07-27T04:09:35.304Z,1013.92
2018-07-27T04:10:35.337Z,1013.92
2018-07-27T04:11:35.363Z,1013.94
2018-07-27T04:12:35.394Z,1013.94
2018-07-27T04:13:35.428Z,1013.94
2018-07-27T04:14:35.454Z,1013.94
2018-07-27T04:15:35.489Z,1014.00
2018-07-27T04:16:35.519Z,1013.95
2018-07-27T04:17:35.554Z,1013.95
2018-07-27T04:18:35.584Z,1013.96
2018-07-27T04:19:35.601Z,1013.95
2018-07-27T04:20:35.637Z,1013.94
2018-07-27T04:21:35.676Z,1013.95
2018-07-27T04:22:35.700Z,1013.97
2018-07-27T04:23:35.739Z,1013.95
2018-07-27T04:24:35.782Z,1013.98
2018-07-27T04:25:35.790Z,1013.96
2018-07-27T04:26:35.818Z,1013.95
2018-07-27T04:27:35.856Z,1013.94
2018-07-27T04:28:35.882Z,1013.92
2018-07-27T04:29:35.911Z,1013.93
2018-07-27T04:30:35.944Z,1013.95
2018-07-27T04:31:35.975Z,1013.94
2018-07-27T04:32:36.028Z,1013.92
2018-07-27T04:33:36.037Z,1013.92
2018-07-27T04:34:36.060Z,1013.95
2018-07-27T04:35:36.100Z,1013.93
2018-07-27T04:36:36.117Z,1013.94
2018-07-27T04:37:36.149Z,1013.93
2018-07-27T04:38:36.191Z,1013.93
2018-07-27T04:39:36.211Z,1013.95
2018-07-27T04:40:36.244Z,1013.92
2018-07-27T04:41:36.274Z,1013.93
2018-07-27T04:42:36.309Z,1013.96
2018-07-27T04:43:36.332Z,1013.95
2018-07-27T04:44:36.361Z,1013.99
2018-07-27T04:45:36.397Z,1013.99
2018-07-27T04:46:36.429Z,1013.98
2018-07-27T04:47:36.456Z,1014.03
2018-07-27T04:48:36.483Z,1014.04
2018-07-27T04:49:37.259Z,1014.02
2018-07-27T04:50:36.565Z,1014.01
2018-07-27T04:51:36.581Z,1014.04
2018-07-27T04:52:36.611Z,1014.05
2018-07-27T04:53:36.639Z,1014.04
2018-07-27T04:54:36.788Z,1014.03
2018-07-27T04:55:36.696Z,1014.04
2018-07-27T04:56:36.810Z,1014.03
2018-07-27T04:57:36.822Z,1014.04
2018-07-27T04:58:36.865Z,1013.98
2018-07-27T04:59:36.822Z,1014.02
2018-07-27T05:00:36.860Z,1013.98
2018-07-27T05:01:36.877Z,1014.03
2018-07-27T05:02:36.909Z,1014.04
2018-07-27T05:03:36.942Z,1014.04
2018-07-27T05:04:36.982Z,1014.03
2018-07-27T05:05:37.000Z,1014.06
2018-07-27T05:06:37.029Z,1014.07
2018-07-27T05:08:37.096Z,1014.02
2018-07-27T05:09:37.130Z,1014.05
2018-07-27T05:10:37.177Z,1014.06
2018-07-27T05:11:37.189Z,1014.06
2018-07-27T05:12:37.319Z,1014.07
2018-07-27T05:13:37.251Z,1014.08
2018-07-27T05:14:37.279Z,1014.06
2018-07-27T05:16:37.342Z,1014.10
2018-07-27T05:17:37.372Z,1014.10
2018-07-27T05:18:37.392Z,1014.10
2018-07-27T05:19:37.425Z,1014.09
2018-07-27T05:20:37.463Z,1014.10
2018-07-27T05:21:37.493Z,1014.09
2018-07-27T05:22:37.514Z,1014.11
2018-07-27T05:23:37.548Z,1014.11
2018-07-27T05:24:37.616Z,1014.10
2018-07-27T05:25:37.615Z,1014.13
2018-07-27T05:26:37.640Z,1014.13
2018-07-27T05:27:37.667Z,1014.14
2018-07-27T05:28:37.699Z,1014.16
2018-07-27T05:29:37.731Z,1014.18
2018-07-27T05:31:37.830Z,1014.14
2018-07-27T05:32:37.860Z,1014.15
2018-07-27T05:33:37.900Z,1014.14
2018-07-27T05:34:37.926Z,1014.12
2018-07-27T05:35:37.954Z,1014.10
2018-07-27T05:36:37.993Z,1014.10
2018-07-27T05:37:59.112Z,1014.07
2018-07-27T05:38:38.000Z,1014.11
2018-07-27T05:39:38.039Z,1014.10
2018-07-27T05:40:38.063Z,1014.11
2018-07-27T05:41:38.099Z,1014.10
2018-07-27T05:42:38.122Z,1014.13
2018-07-27T05:43:38.157Z,1014.11
2018-07-27T05:44:38.196Z,1014.11
2018-07-27T05:45:38.216Z,1014.09
2018-07-27T05:46:38.247Z,1014.11
2018-07-27T05:47:38.279Z,1014.11
2018-07-27T05:48:38.317Z,1014.09
2018-07-27T05:49:38.382Z,1014.10
2018-07-27T05:50:38.366Z,1014.11
2018-07-27T05:51:38.403Z,1014.12
2018-07-27T05:52:38.462Z,1014.13
2018-07-27T05:53:38.459Z,1014.12
2018-07-27T05:54:38.500Z,1014.09
2018-07-27T05:55:38.526Z,1014.08
2018-07-27T05:56:38.552Z,1014.08
2018-07-27T05:57:38.578Z,1014.10
2018-07-27T05:58:38.730Z,1014.07
2018-07-27T05:59:38.656Z,1014.06
2018-07-27T06:00:38.670Z,1014.07
2018-07-27T06:01:38.709Z,1014.04
2018-07-27T06:02:38.764Z,1014.06
2018-07-27T06:03:38.766Z,1014.05
2018-07-27T06:04:38.800Z,1014.09
2018-07-27T06:05:38.824Z,1014.08
2018-07-27T06:06:38.856Z,1014.06
2018-07-27T06:07:38.894Z,1014.06
2018-07-27T06:08:38.968Z,1014.03
2018-07-27T06:09:39.006Z,1014.06
2018-07-27T06:10:38.982Z,1014.05
2018-07-27T06:11:39.022Z,1014.03
2018-07-27T06:12:39.043Z,1014.04
2018-07-27T06:13:39.072Z,1014.01
2018-07-27T06:14:39.112Z,1014.00
2018-07-27T06:15:39.130Z,1013.97
2018-07-27T06:16:39.161Z,1014.01
2018-07-27T06:17:39.203Z,1013.99
2018-07-27T06:18:39.244Z,1013.98
2018-07-27T06:19:39.253Z,1014.01
2018-07-27T06:20:39.288Z,1013.99
2018-07-27T06:21:39.317Z,1014.00
2018-07-27T06:22:39.347Z,1014.01
2018-07-27T06:23:39.425Z,1013.98
2018-07-27T06:24:39.422Z,1014.04
2018-07-27T06:25:39.527Z,1014.05
2018-07-27T06:26:39.469Z,1014.07
2018-07-27T06:27:39.496Z,1014.06
2018-07-27T06:28:39.532Z,1014.08
2018-07-27T06:29:39.564Z,1014.07
2018-07-27T06:30:39.606Z,1014.04
2018-07-27T06:31:39.620Z,1014.05
2018-07-27T06:32:39.649Z,1014.07
2018-07-27T06:33:39.692Z,1014.04
2018-07-27T06:34:39.711Z,1014.05
2018-07-27T06:35:39.742Z,1014.04
2018-07-27T06:36:39.776Z,1014.03
2018-07-27T06:37:39.813Z,1014.03
2018-07-27T06:38:39.863Z,1014.04
2018-07-27T06:39:39.876Z,1014.03
2018-07-27T06:40:40.083Z,1014.04
2018-07-27T06:41:39.928Z,1014.03
2018-07-27T06:42:40.086Z,1014.02
2018-07-27T06:43:40.005Z,1014.02
2018-07-27T06:44:40.025Z,1014.02
2018-07-27T06:45:40.051Z,1014.01
2018-07-27T06:46:40.078Z,1014.06
2018-07-27T06:47:40.111Z,1014.05
2018-07-27T06:48:40.152Z,1014.05
2018-07-27T06:49:40.169Z,1014.05
2018-07-27T06:50:40.224Z,1014.07
2018-07-27T06:51:40.247Z,1014.09
2018-07-27T06:52:40.264Z,1014.08
2018-07-27T06:53:40.303Z,1014.07
2018-07-27T06:54:40.325Z,1014.09
2018-07-27T06:55:40.361Z,1014.04
2018-07-27T06:56:40.392Z,1014.06
2018-07-27T06:57:40.416Z,1014.07
2018-07-27T06:58:40.456Z,1014.10
2018-07-27T06:59:40.477Z,1014.14
2018-07-27T07:00:40.517Z,1014.09
2018-07-27T07:01:40.535Z,1014.11
2018-07-27T07:02:40.567Z,1014.13
2018-07-27T07:03:40.604Z,1014.10
2018-07-27T07:04:40.632Z,1014.11
2018-07-27T07:05:40.662Z,1014.12
2018-07-27T07:06:40.696Z,1014.14
2018-07-27T07:07:40.735Z,1014.14
2018-07-27T07:08:40.762Z,1014.13
2018-07-27T07:09:40.808Z,1014.16
2018-07-27T07:10:40.829Z,1014.18
2018-07-27T07:11:40.857Z,1014.18
2018-07-27T07:12:40.879Z,1014.20
2018-07-27T07:13:40.908Z,1014.23
2018-07-27T07:14:40.943Z,1014.23
2018-07-27T07:15:40.973Z,1014.20
2018-07-27T07:16:41.007Z,1014.19
2018-07-27T07:17:41.036Z,1014.24
2018-07-27T07:18:41.067Z,1014.20
2018-07-27T07:19:41.095Z,1014.21
2018-07-27T07:20:41.123Z,1014.23
2018-07-27T07:21:41.160Z,1014.23
2018-07-27T07:22:41.183Z,1014.22
2018-07-27T07:23:41.216Z,1014.24
2018-07-27T07:24:41.254Z,1014.20
2018-07-27T07:25:41.361Z,1014.21
2018-07-27T07:26:41.314Z,1014.19
2018-07-27T07:27:41.347Z,1014.19
2018-07-27T07:28:41.373Z,1014.18
2018-07-27T07:29:41.438Z,1014.15
2018-07-27T07:30:41.438Z,1014.16
2018-07-27T07:31:41.460Z,1014.12
2018-07-27T07:32:41.497Z,1014.13
2018-07-27T07:33:41.529Z,1014.17
2018-07-27T07:34:41.551Z,1014.17
2018-07-27T07:35:41.584Z,1014.15
2018-07-27T07:36:41.624Z,1014.20
2018-07-27T07:37:41.652Z,1014.14
2018-07-27T07:38:41.680Z,1014.16
2018-07-27T07:39:41.709Z,1014.14
2018-07-27T07:40:41.735Z,1014.16
2018-07-27T07:41:41.767Z,1014.13
2018-07-27T07:42:41.801Z,1014.16
2018-07-27T07:43:41.849Z,1014.14
2018-07-27T07:44:41.859Z,1014.17
2018-07-27T07:45:41.890Z,1014.14
2018-07-27T07:46:41.935Z,1014.12
2018-07-27T07:47:41.962Z,1014.15
2018-07-27T07:48:41.990Z,1014.16
2018-07-27T07:49:42.014Z,1014.18
2018-07-27T07:50:42.050Z,1014.17
2018-07-27T07:51:42.133Z,1014.17
2018-07-27T07:52:42.137Z,1014.16
2018-07-27T07:53:42.145Z,1014.16
2018-07-27T07:54:42.171Z,1014.16
2018-07-27T07:55:42.210Z,1014.15
2018-07-27T07:56:42.232Z,1014.15
2018-07-27T07:57:42.295Z,1014.16
2018-07-27T07:58:42.353Z,1014.17
2018-07-27T07:59:42.338Z,1014.21
2018-07-27T08:00:42.371Z,1014.14
2018-07-27T08:01:42.409Z,1014.13
2018-07-27T08:02:42.427Z,1014.13
2018-07-27T08:03:42.469Z,1014.10
2018-07-27T08:04:42.485Z,1014.08
2018-07-27T08:05:43.333Z,1014.05
2018-07-27T08:06:42.549Z,1014.04
2018-07-27T08:07:42.625Z,1014.04
2018-07-27T08:08:42.607Z,1014.00
2018-07-27T08:09:42.633Z,1014.01
2018-07-27T08:10:42.667Z,1013.99
2018-07-27T08:11:42.701Z,1014.05
2018-07-27T08:12:42.731Z,1014.03
2018-07-27T08:13:42.843Z,1013.99
2018-07-27T08:14:42.797Z,1014.02
2018-07-27T08:15:42.818Z,1014.00
2018-07-27T08:16:42.880Z,1013.99
2018-07-27T08:17:42.901Z,1014.00
2018-07-27T08:18:42.914Z,1014.00
2018-07-27T08:19:42.948Z,1014.06
2018-07-27T08:20:42.989Z,1014.07
2018-07-27T08:21:43.005Z,1014.11
2018-07-27T08:22:43.048Z,1014.08
2018-07-27T08:23:43.086Z,1014.05
2018-07-27T08:24:43.099Z,1013.99
2018-07-27T08:25:43.188Z,1014.03
2018-07-27T08:26:43.160Z,1014.05
2018-07-27T08:27:43.196Z,1013.99
2018-07-27T08:28:43.233Z,1014.00
2018-07-27T08:29:43.259Z,1013.99
2018-07-27T08:30:43.294Z,1014.00
2018-07-27T08:31:43.315Z,1014.00
2018-07-27T08:32:43.345Z,1013.97
2018-07-27T08:33:43.386Z,1014.02
2018-07-27T08:34:43.421Z,1013.94
2018-07-27T08:35:43.444Z,1013.92
2018-07-27T08:36:43.472Z,1013.94
2018-07-27T08:37:43.517Z,1013.94
2018-07-27T08:38:43.536Z,1013.96
2018-07-27T08:39:43.624Z,1013.96
2018-07-27T08:40:43.596Z,1013.97
2018-07-27T08:41:43.626Z,1013.98
2018-07-27T08:42:43.677Z,1013.93
2018-07-27T08:43:43.703Z,1013.92
2018-07-27T08:44:43.751Z,1013.95
2018-07-27T08:45:43.749Z,1013.94
2018-07-27T08:46:43.780Z,1013.94
2018-07-27T08:47:43.830Z,1013.92
2018-07-27T08:48:43.865Z,1013.89
2018-07-27T08:49:43.880Z,1013.90
2018-07-27T08:50:43.919Z,1013.92
2018-07-27T08:51:43.939Z,1013.87
2018-07-27T08:52:43.969Z,1013.87
2018-07-27T08:53:44.027Z,1013.85
2018-07-27T08:54:44.038Z,1013.83
2018-07-27T08:55:44.060Z,1013.81
2018-07-27T08:56:44.092Z,1013.80
2018-07-27T08:57:44.124Z,1013.77
2018-07-27T08:58:44.156Z,1013.81
2018-07-27T08:59:44.196Z,1013.79
2018-07-27T09:00:44.231Z,1013.76
2018-07-27T09:01:44.271Z,1013.74
2018-07-27T09:02:44.279Z,1013.72
2018-07-27T09:03:44.317Z,1013.75
2018-07-27T09:04:44.350Z,1013.74
2018-07-27T09:05:44.381Z,1013.74
2018-07-27T09:06:44.409Z,1013.76
2018-07-27T09:07:44.449Z,1013.71
2018-07-27T09:08:44.477Z,1013.75
2018-07-27T09:09:44.505Z,1013.72
2018-07-27T09:10:44.532Z,1013.76
2018-07-27T09:11:44.571Z,1013.75
2018-07-27T09:12:44.605Z,1013.79
2018-07-27T09:13:44.624Z,1013.77
2018-07-27T09:14:44.672Z,1013.74
2018-07-27T09:15:44.688Z,1013.73
2018-07-27T09:16:44.728Z,1013.76
2018-07-27T09:17:44.757Z,1013.70
2018-07-27T09:18:44.789Z,1013.72
2018-07-27T09:19:44.810Z,1013.72
2018-07-27T09:20:44.855Z,1013.74
2018-07-27T09:21:44.876Z,1013.68
2018-07-27T09:22:44.911Z,1013.68
2018-07-27T09:23:44.962Z,1013.69
2018-07-27T09:24:45.095Z,1013.69
2018-07-27T09:25:44.997Z,1013.64
2018-07-27T09:26:45.079Z,1013.68
2018-07-27T09:27:45.084Z,1013.67
2018-07-27T09:28:45.093Z,1013.65
2018-07-27T09:29:45.136Z,1013.65
2018-07-27T09:30:45.155Z,1013.66
2018-07-27T09:31:45.191Z,1013.62
2018-07-27T09:32:45.217Z,1013.64
2018-07-27T09:33:45.256Z,1013.64
2018-07-27T09:34:45.347Z,1013.64
2018-07-27T09:35:45.315Z,1013.58
2018-07-27T09:36:45.351Z,1013.57
2018-07-27T09:37:45.390Z,1013.58
2018-07-27T09:38:45.418Z,1013.58
2018-07-27T09:39:45.435Z,1013.54
2018-07-27T09:40:45.475Z,1013.56
2018-07-27T09:41:45.499Z,1013.54
2018-07-27T09:42:45.529Z,1013.54
2018-07-27T09:43:45.559Z,1013.56
2018-07-27T09:44:45.596Z,1013.59
2018-07-27T09:45:45.623Z,1013.53
2018-07-27T09:46:45.661Z,1013.60
2018-07-27T09:47:45.706Z,1013.57
2018-07-27T09:48:45.730Z,1013.58
2018-07-27T09:49:45.754Z,1013.59
2018-07-27T09:50:45.782Z,1013.59
2018-07-27T09:51:45.908Z,1013.56
2018-07-27T09:52:45.845Z,1013.56
2018-07-27T09:53:45.981Z,1013.55
2018-07-27T09:54:45.922Z,1013.58
2018-07-27T09:55:45.965Z,1013.57
2018-07-27T09:56:45.975Z,1013.50
2018-07-27T09:57:46.013Z,1013.57
2018-07-27T09:58:46.031Z,1013.53
2018-07-27T09:59:46.064Z,1013.57
2018-07-27T10:00:46.099Z,1013.52
2018-07-27T10:01:46.122Z,1013.54
2018-07-27T10:02:46.160Z,1013.49
2018-07-27T10:03:46.202Z,1013.47
2018-07-27T10:04:46.223Z,1013.44
2018-07-27T10:05:46.255Z,1013.49
2018-07-27T10:06:46.284Z,1013.45
2018-07-27T10:07:46.315Z,1013.45
2018-07-27T10:08:46.359Z,1013.44
2018-07-27T10:09:46.388Z,1013.39
2018-07-27T10:10:46.407Z,1013.41
2018-07-27T10:11:46.442Z,1013.37
2018-07-27T10:12:46.536Z,1013.37
2018-07-27T10:13:46.509Z,1013.35
2018-07-27T10:14:46.532Z,1013.35
2018-07-27T10:15:46.577Z,1013.33
2018-07-27T10:16:46.603Z,1013.33
2018-07-27T10:17:46.630Z,1013.33
2018-07-27T10:18:46.664Z,1013.33
2018-07-27T10:19:46.689Z,1013.59
2018-07-27T10:20:46.730Z,1013.58
2018-07-27T10:21:46.760Z,1013.48
2018-07-27T10:22:46.787Z,1013.59
2018-07-27T10:23:46.826Z,1013.60
2018-07-27T10:24:46.847Z,1013.57
2018-07-27T10:25:46.884Z,1013.33
2018-07-27T10:26:46.936Z,1013.29
2018-07-27T10:27:46.943Z,1013.46
2018-07-27T10:28:46.977Z,1013.32
2018-07-27T10:29:47.014Z,1013.44
2018-07-27T10:30:47.053Z,1013.26
2018-07-27T10:31:47.078Z,1013.43
2018-07-27T10:32:47.115Z,1013.44
2018-07-27T10:33:47.142Z,1013.23
2018-07-27T10:34:47.177Z,1013.19
2018-07-27T10:35:47.210Z,1013.23
2018-07-27T10:36:47.239Z,1013.16
2018-07-27T10:37:47.264Z,1013.16
2018-07-27T10:38:47.294Z,1013.37
2018-07-27T10:39:47.325Z,1013.16
2018-07-27T10:40:47.361Z,1013.25
2018-07-27T10:41:47.403Z,1013.10
2018-07-27T10:42:47.421Z,1013.22
2018-07-27T10:43:47.471Z,1013.20
2018-07-27T10:44:47.496Z,1013.37
2018-07-27T10:45:47.520Z,1013.26
2018-07-27T10:46:47.550Z,1013.09
2018-07-27T10:47:47.588Z,1013.14
2018-07-27T10:48:47.627Z,1013.17
2018-07-27T10:49:47.662Z,1013.38
2018-07-27T10:50:47.679Z,1013.32
2018-07-27T10:51:47.714Z,1013.27
2018-07-27T10:52:47.746Z,1013.34
2018-07-27T10:53:47.780Z,1013.26
2018-07-27T10:54:47.812Z,1013.27
2018-07-27T10:55:47.849Z,1013.21
2018-07-27T10:56:47.877Z,1013.20
2018-07-27T10:57:47.910Z,1013.21
2018-07-27T10:58:47.949Z,1013.21
2018-07-27T10:59:47.971Z,1012.99
2018-07-27T11:00:48.012Z,1012.97
2018-07-27T11:01:48.040Z,1012.97
2018-07-27T11:02:48.077Z,1013.16
2018-07-27T11:03:48.110Z,1012.99
2018-07-27T11:04:48.138Z,1013.22
2018-07-27T11:05:48.175Z,1013.27
2018-07-27T11:06:48.207Z,1013.18
2018-07-27T11:07:48.240Z,1013.15
2018-07-27T11:08:48.290Z,1013.14
2018-07-27T11:09:48.336Z,1013.13
2018-07-27T11:10:48.334Z,1013.08
2018-07-27T11:11:48.374Z,1013.07
2018-07-27T11:12:48.425Z,1013.13
2018-07-27T11:13:48.444Z,1013.05
2018-07-27T11:14:48.473Z,1013.06
2018-07-27T11:15:48.507Z,1013.05
2018-07-27T11:16:48.541Z,1013.04
2018-07-27T11:17:48.619Z,1013.05
2018-07-27T11:18:48.613Z,1012.96
2018-07-27T11:19:48.715Z,1012.91
2018-07-27T11:20:48.676Z,1012.90
2018-07-27T11:21:48.718Z,1012.91
2018-07-27T11:22:48.755Z,1012.89
2018-07-27T11:23:48.787Z,1012.90
2018-07-27T11:24:48.818Z,1012.86
2018-07-27T11:25:48.858Z,1012.86
2018-07-27T11:26:48.894Z,1012.82
2018-07-27T11:27:48.928Z,1012.84
2018-07-27T11:28:49.103Z,1012.77
2018-07-27T11:29:49.004Z,1012.72
2018-07-27T11:30:49.034Z,1012.67
2018-07-27T11:31:49.071Z,1012.64
2018-07-27T11:32:49.109Z,1012.57
2018-07-27T11:33:49.147Z,1012.55
2018-07-27T11:34:49.200Z,1012.51
2018-07-27T11:35:49.224Z,1012.48
2018-07-27T11:36:49.264Z,1012.50
2018-07-27T11:37:49.299Z,1012.49
2018-07-27T11:38:49.334Z,1012.56
2018-07-27T11:39:49.372Z,1012.46
2018-07-27T11:40:49.403Z,1012.50
2018-07-27T11:41:49.441Z,1012.47
2018-07-27T11:42:49.471Z,1012.51
2018-07-27T11:43:49.512Z,1012.47
2018-07-27T11:44:49.541Z,1012.44
2018-07-27T11:45:49.575Z,1012.41
2018-07-27T11:46:49.622Z,1012.36
2018-07-27T11:47:49.641Z,1012.33
2018-07-27T11:48:49.684Z,1012.23
2018-07-27T11:49:49.710Z,1012.33
2018-07-27T11:50:49.743Z,1012.37
2018-07-27T11:51:49.775Z,1012.26
2018-07-27T11:52:49.826Z,1012.25
2018-07-27T11:53:49.848Z,1012.26
2018-07-27T11:54:49.874Z,1012.32
2018-07-27T11:55:49.922Z,1012.24
2018-07-27T11:56:49.953Z,1012.24
2018-07-27T11:57:49.980Z,1012.22
2018-07-27T11:58:50.011Z,1012.24
2018-07-27T11:59:50.040Z,1012.27
2018-07-27T12:00:50.094Z,1012.18
2018-07-27T12:01:50.109Z,1012.22
2018-07-27T12:02:50.143Z,1012.21
2018-07-27T12:03:50.178Z,1012.21
2018-07-27T12:04:50.217Z,1012.22
2018-07-27T12:05:50.241Z,1012.20
2018-07-27T12:06:50.281Z,1012.18
2018-07-27T12:07:50.311Z,1012.17
2018-07-27T12:08:50.335Z,1012.14